Latest Coastal Weather Observations for Friendly Beaches

IDT60701

Issued at 10:35 am EST Thursday 24 April 2014 (issued every 10 minutes, with the page automatically refreshed every 10 minutes)

About coastal observations | Map of coastal stations | Coastal observations for TAS | Marine services | Other Formats
Station Details ID: 092114 Name: FRIENDLY BEACHES Lat: -42.00 Lon: 148.28 Height: 55.0 m
Data from the previous 72 hours. | See also: Recent months at Friendly Beaches
Date/Time
EST
Temp

°C
Wind Pressure Rain
since 9am
mm
Weather Cloud Vis
km
Sea
Height
m
Swell
Dir
 
Speed
knots
Gust
knots
hPa Trend Height
m
Period
s
Dir
24/10:30am 11.5 WSW 8 13 1005.1 - 0.0 - - - - - - -
24/10:00am 11.7 WNW 4 8 1004.6 - 0.0 - - - - - - -
24/09:30am 11.7 W 5 9 1004.2 - 0.0 - - - - - - -
24/09:00am 10.1 W 1 3 1003.6 - 8.0 - - - - - - -
24/08:30am 9.3 W 2 5 1002.6 - 8.0 - - - - - - -
24/08:00am 9.1 SW 3 7 1002.5 - 8.0 - - - - - - -
24/07:30am 9.1 W 5 9 1002.5 - 8.0 - - - - - - -
24/07:00am 9.5 WSW 7 12 1002.5 - 7.6 - - - - - - -
24/06:30am 12.4 WSW 13 25 1002.0 - 3.0 - - - - - - -
24/06:00am 14.1 N 10 18 999.9 - 0.0 - - - - - - -
24/05:30am 13.9 N 11 18 999.8 - 0.0 - - - - - - -
24/05:00am 13.8 N 11 18 1000.2 - 0.0 - - - - - - -
24/04:30am 12.5 N 4 8 1000.8 - 0.0 - - - - - - -
24/04:00am 13.1 N 5 8 1001.2 - 0.0 - - - - - - -
24/03:30am 13.5 N 9 14 1001.7 - 0.0 - - - - - - -
24/03:00am 13.9 N 8 14 1002.1 - 0.0 - - - - - - -
24/02:30am 14.4 NNW 11 20 1003.3 - 0.0 - - - - - - -
24/02:00am 14.2 NW 11 19 1003.3 - 0.0 - - - - - - -
24/01:30am 14.0 NW 8 15 1004.2 - 0.0 - - - - - - -
24/01:00am 12.3 NW 3 6 1004.6 - 0.0 - - - - - - -
24/12:30am 12.7 NNW 6 9 1005.3 - 0.0 - - - - - - -
24/12:00am 11.2 N 4 7 1005.5 - 0.0 - - - - - - -
 
Date/Time
EST
Temp

°C
Wind Pressure Rain
since 9am
mm
Weather Cloud Vis
km
Sea
Height
m
Swell
Dir
 
Speed
knots
Gust
knots
hPa Trend Height
m
Period
s
Dir
23/11:30pm 11.2 NNE 4 5 1006.3 - 0.0 - - - - - - -
23/11:00pm 12.2 N 5 7 1006.8 - 0.0 - - - - - - -
23/10:30pm 12.3 N 4 7 1007.4 - 0.0 - - - - - - -
23/10:00pm 12.5 N 6 11 1007.7 - 0.0 - - - - - - -
23/09:30pm 12.7 N 6 9 1008.2 - 0.0 - - - - - - -
23/09:00pm 13.0 N 8 12 1008.5 - 0.0 - - - - - - -
23/08:30pm 12.7 N 7 11 1008.7 - 0.0 - - - - - - -
23/08:00pm 13.2 N 6 8 1009.1 - 0.0 - - - - - - -
23/07:30pm 13.5 N 6 9 1009.2 - 0.0 - - - - - - -
23/07:00pm 14.2 N 8 12 1009.4 - 0.0 - - - - - - -
23/06:30pm 14.4 NNW 6 9 1009.5 - 0.0 - - - - - - -
23/06:00pm 14.4 NNW 5 11 1009.6 - 0.0 - - - - - - -
23/05:30pm 14.4 NNW 4 8 1009.6 - 0.0 - - - - - - -
23/05:00pm 15.5 NNW 4 8 1009.6 - 0.0 - - - - - - -
23/04:30pm 15.6 NNW 5 9 1009.9 - 0.0 - - - - - - -
23/04:00pm 15.9 NW 4 7 1010.1 - 0.0 - - - - - - -
23/03:30pm 16.4 WNW 6 12 1010.1 - 0.0 - - - - - - -
23/03:00pm 16.9 WNW 10 18 1010.2 - 0.0 - - - - - - -
23/02:30pm 17.4 WNW 7 14 1010.3 - 0.0 - - - - - - -
23/02:00pm 18.2 W 3 9 1010.7 - 0.0 - - - - - - -
23/01:30pm 18.4 NNE 7 13 1011.0 - 0.0 - - - - - - -
23/01:00pm 18.3 NNE 10 16 1011.4 - 0.0 - - - - - - -
23/12:30pm 18.7 NNE 7 13 1011.7 - 0.0 - - - - - - -
23/12:00pm 17.6 NNE 9 14 1012.5 - 0.0 - - - - - - -
23/11:30am 18.1 NNE 9 12 1013.0 - 0.0 - - - - - - -
23/11:00am 18.1 N 5 10 1013.5 - 0.0 - - - - - - -
23/10:30am 16.6 WNW 4 8 1013.9 - 0.0 - - - - - - -
23/10:00am 16.7 WNW 4 6 1014.3 - 0.0 - - - - - - -
23/09:30am 15.2 WNW 4 7 1014.5 - 0.0 - - - - - - -
23/09:00am 13.5 W 2 4 1014.6 - 0.0 - - - - - - -
23/08:30am 12.7 WNW 3 6 1014.7 - 0.0 - - - - - - -
23/08:00am 11.1 NW 4 6 1014.7 - 0.0 - - - - - - -
23/07:30am 10.1 WNW 5 7 1014.5 - 0.0 - - - - - - -
23/07:00am 9.7 W 5 6 1014.4 - 0.0 - - - - - - -
23/06:30am 9.8 WNW 6 9 1014.3 - 0.0 - - - - - - -
23/06:00am 9.5 W 5 7 1014.3 - 0.0 - - - - - - -
23/05:30am 9.6 WNW 7 11 1014.4 - 0.0 - - - - - - -
23/05:00am 9.1 W 6 9 1014.0 - 0.0 - - - - - - -
23/04:30am 8.8 W 5 7 1014.1 - 0.0 - - - - - - -
23/04:00am 9.3 W 6 7 1014.0 - 0.0 - - - - - - -
23/03:30am 9.9 W 7 11 1013.8 - 0.0 - - - - - - -
23/03:00am 10.4 W 8 12 1013.8 - 0.0 - - - - - - -
23/02:30am 10.8 W 8 13 1013.8 - 0.0 - - - - - - -
23/02:00am 10.7 W 10 15 1013.9 - 0.0 - - - - - - -
23/01:30am 9.5 W 6 8 1014.3 - 0.0 - - - - - - -
23/01:00am 10.0 WSW 6 9 1014.3 - 0.0 - - - - - - -
23/12:30am 9.3 W 3 4 1014.5 - 0.0 - - - - - - -
23/12:00am 9.3 W 2 3 1014.2 - 0.0 - - - - - - -
 
Date/Time
EST
Temp

°C
Wind Pressure Rain
since 9am
mm
Weather Cloud Vis
km
Sea
Height
m
Swell
Dir
 
Speed
knots
Gust
knots
hPa Trend Height
m
Period
s
Dir
22/11:30pm 9.9 W 3 4 1014.2 - 0.0 - - - - - - -
22/11:00pm 9.7 N 1 2 1014.1 - 0.0 - - - - - - -
22/10:30pm 9.6 N 2 4 1014.0 - 0.0 - - - - - - -
22/10:00pm 10.5 W 3 4 1013.6 - 0.0 - - - - - - -
22/09:30pm 11.1 WSW 3 5 1013.1 - 0.0 - - - - - - -
22/09:00pm 11.7 W 3 4 1012.8 - 0.0 - - - - - - -
22/08:30pm 12.0 WSW 4 5 1012.5 - 0.0 - - - - - - -
22/08:00pm 12.3 W 4 6 1012.2 - 0.0 - - - - - - -
22/07:30pm 12.6 W 5 7 1011.9 - 0.0 - - - - - - -
22/07:00pm 13.5 WSW 5 7 1011.6 - 0.0 - - - - - - -
22/06:30pm 14.5 W 3 4 1011.0 - 0.0 - - - - - - -
22/06:00pm 15.4 WSW 6 9 1010.1 - 0.0 - - - - - - -
22/05:30pm 16.0 SW 7 13 1009.4 - 0.0 - - - - - - -
22/05:00pm 17.1 SW 6 11 1008.9 - 0.0 - - - - - - -
22/04:30pm 17.7 SW 4 7 1008.5 - 0.0 - - - - - - -
22/04:00pm 18.3 SSW 7 12 1007.8 - 0.0 - - - - - - -
22/03:30pm 19.6 W 6 11 1007.5 - 0.0 - - - - - - -
22/03:00pm 20.1 W 7 11 1007.0 - 0.0 - - - - - - -
22/02:30pm 21.8 WNW 6 12 1006.9 - 0.0 - - - - - - -
22/02:00pm 21.3 WNW 8 14 1006.6 - 0.0 - - - - - - -
22/01:30pm 20.1 W 10 19 1006.8 - 0.0 - - - - - - -
22/01:00pm 20.7 WNW 10 18 1006.6 - 0.0 - - - - - - -
22/12:30pm 21.1 W 8 13 1006.8 - 0.0 - - - - - - -
22/12:00pm 19.6 WNW 6 12 1006.8 - 0.0 - - - - - - -
22/11:30am 20.1 WNW 7 18 1006.9 - 0.0 - - - - - - -
22/11:00am 18.1 WNW 8 14 1007.0 - 0.0 - - - - - - -
22/10:30am 18.0 WNW 8 14 1006.7 - 0.0 - - - - - - -
22/10:00am 17.9 WNW 4 9 1006.4 - 0.0 - - - - - - -
22/09:30am 17.8 WNW 6 12 1006.7 - 0.0 - - - - - - -
22/09:00am 17.6 WNW 5 11 1006.6 - 0.6 - - - - - - -
22/08:30am 16.9 NNW 2 7 1006.2 - 0.6 - - - - - - -
22/08:00am 17.2 NW 2 4 1006.3 - 0.6 - - - - - - -
22/07:30am 16.8 NNW 2 5 1006.0 - 0.6 - - - - - - -
22/07:00am 17.2 NNE 4 9 1005.3 - 0.6 - - - - - - -
22/06:30am 18.0 N 6 10 1005.3 - 0.6 - - - - - - -
22/06:00am 18.4 NW 10 22 1005.2 - 0.6 - - - - - - -
22/05:30am 18.2 NNW 10 19 1005.4 - 0.6 - - - - - - -
22/05:00am 17.9 NNW 8 22 1005.3 - 0.6 - - - - - - -
22/04:30am 18.1 NNW 7 14 1005.3 - 0.6 - - - - - - -
22/04:00am 17.6 N 7 10 1005.3 - 0.6 - - - - - - -
22/03:30am 17.6 NNW 8 16 1005.4 - 0.6 - - - - - - -
22/03:00am 16.3 NNW 8 14 1005.6 - 0.6 - - - - - - -
22/02:30am 15.2 N 8 13 1006.0 - 0.6 - - - - - - -
22/02:00am 15.2 N 13 20 1006.2 - 0.6 - - - - - - -
22/01:30am 14.7 N 11 18 1007.0 - 0.6 - - - - - - -
22/01:00am 14.4 N 7 14 1007.4 - 0.6 - - - - - - -
22/12:30am 14.3 N 9 20 1007.8 - 0.6 - - - - - - -
22/12:00am 14.6 N 12 20 1008.3 - 0.6 - - - - - - -
 
Date/Time
EST
Temp

°C
Wind Pressure Rain
since 9am
mm
Weather Cloud Vis
km
Sea
Height
m
Swell
Dir
 
Speed
knots
Gust
knots
hPa Trend Height
m
Period
s
Dir
21/11:30pm 14.5 N 9 18 1009.1 - 0.6 - - - - - - -
21/11:00pm 14.4 N 9 17 1009.7 - 0.6 - - - - - - -
21/10:30pm 14.2 N 10 15 1010.6 - 0.6 - - - - - - -
21/10:00pm 13.8 N 11 17 1011.2 - 0.6 - - - - - - -
21/09:30pm 13.7 N 11 17 1011.7 - 0.6 - - - - - - -
21/09:00pm 13.1 N 12 20 1011.4 - 0.6 - - - - - - -
21/08:30pm 13.5 N 12 17 1012.1 - 0.6 - - - - - - -
21/08:00pm 13.0 N 11 18 1012.0 - 0.6 - - - - - - -
21/07:30pm 12.6 N 10 16 1012.3 - 0.6 - - - - - - -
21/07:00pm 13.6 N 12 19 1012.5 - 0.0 - - - - - - -
21/06:30pm 13.0 N 7 13 1012.6 - 0.0 - - - - - - -
21/06:00pm 12.9 N 7 12 1012.9 - 0.0 - - - - - - -
21/05:30pm 12.4 N 6 9 1013.4 - 0.0 - - - - - - -
21/05:00pm 12.4 NNE 9 15 1013.7 - 0.0 - - - - - - -
21/04:30pm 13.1 NNE 8 12 1013.9 - 0.0 - - - - - - -
21/04:00pm 13.9 NNE 7 12 1014.3 - 0.0 - - - - - - -
21/03:30pm 12.7 NNE 7 12 1014.5 - 0.0 - - - - - - -
21/03:00pm 12.8 NNE 7 11 1015.0 - 0.0 - - - - - - -
21/02:30pm 13.4 NNE 7 12 1015.4 - 0.0 - - - - - - -
21/02:00pm 13.5 NNE 6 10 1015.7 - 0.0 - - - - - - -
21/01:30pm 13.4 N 8 13 1016.1 - 0.0 - - - - - - -
21/01:00pm 14.0 NNE 8 14 1016.4 - 0.0 - - - - - - -
21/12:30pm 14.0 NE 7 11 1017.0 - 0.0 - - - - - - -
21/12:00pm 13.9 NNE 6 11 1017.4 - 0.0 - - - - - - -
21/11:30am 13.7 NNE 6 9 1017.9 - 0.0 - - - - - - -
21/11:00am 13.7 NE 5 8 1018.2 - 0.0 - - - - - - -

Other Formats:

Comma delimited format used in spreadsheet applications
http://www.bom.gov.au/fwo/IDT60701/IDT60701.94987.axf

JavaScript Object Notation format (JSON) in row-major order
http://www.bom.gov.au/fwo/IDT60701/IDT60701.94987.json